Time;durP1;ratioP1;P1;durP2;ratioP2;P2;SDS_P1;SDS_P2;PMS_P1;PMS_P2;Temp;Humidity;BMP_temperature;BMP_pressure;BME280_temperature;BME280_humidity;BME280_pressure;Samples;Min_cycle;Max_cycle;Signal;HPM_P1;HPM_P2
2023/09/23 00:00:49;;;;;;;31.92;30.13;;;;;;;18.01;100.00;100891.56;5001265;28;20053;-75
2023/09/23 00:03:16;;;;;;;35.80;33.50;;;;;;;18.01;100.00;100880.00;4995790;28;20068;-75
2023/09/23 00:05:44;;;;;;;31.58;29.77;;;;;;;17.90;100.00;100887.13;5000494;28;20463;-75
2023/09/23 00:08:11;;;;;;;35.78;33.80;;;;;;;17.74;100.00;100886.09;4999016;28;20050;-75
2023/09/23 00:10:38;;;;;;;32.33;30.42;;;;;;;17.96;100.00;100896.88;5005095;28;20066;-76
2023/09/23 00:13:06;;;;;;;32.50;30.60;;;;;;;17.97;100.00;100890.44;5003803;28;20108;-72
2023/09/23 00:15:35;;;;;;;34.03;31.88;;;;;;;18.01;100.00;100890.75;5001451;28;20169;-72
2023/09/23 00:18:04;;;;;;;28.15;26.45;;;;;;;17.34;100.00;100900.59;5002452;28;20108;-72
2023/09/23 00:20:32;;;;;;;28.83;26.83;;;;;;;17.82;100.00;100890.25;5000515;28;20108;-72
2023/09/23 00:23:01;;;;;;;29.80;27.90;;;;;;;17.93;100.00;100892.00;5000320;28;20049;-76
2023/09/23 00:25:27;;;;;;;29.88;28.05;;;;;;;17.91;100.00;100893.31;4998230;28;20045;-72
2023/09/23 00:27:54;;;;;;;30.13;28.23;;;;;;;17.92;100.00;100889.56;5002606;28;20536;-72
2023/09/23 00:30:22;;;;;;;30.95;28.65;;;;;;;18.01;100.00;100896.13;4999850;28;20182;-72
2023/09/23 00:32:51;;;;;;;30.38;28.35;;;;;;;17.27;100.00;100899.13;5003979;28;20102;-72
2023/09/23 00:35:20;;;;;;;30.30;28.13;;;;;;;17.21;100.00;100905.47;5004054;28;20152;-72
2023/09/23 00:37:48;;;;;;;31.70;29.80;;;;;;;17.62;100.00;100906.88;4996115;28;20050;-75
2023/09/23 00:40:17;;;;;;;29.50;27.60;;;;;;;17.67;100.00;100906.13;4999847;28;20496;-75
2023/09/23 00:42:47;;;;;;;26.45;24.67;;;;;;;17.67;100.00;100901.59;4995510;28;20046;-72
2023/09/23 00:45:17;;;;;;;31.60;29.60;;;;;;;17.73;100.00;100905.13;4998401;28;20048;-72
2023/09/23 00:47:45;;;;;;;25.10;23.50;;;;;;;17.70;100.00;100897.56;4996980;28;20046;-75
2023/09/23 00:50:18;;;;;;;27.38;25.60;;;;;;;17.61;100.00;100910.66;4997826;28;20053;-76
2023/09/23 00:53:06;;;;;;;30.45;28.65;;;;;;;17.78;100.00;100895.31;4998892;28;20085;-76
2023/09/23 00:55:40;;;;;;;30.85;29.05;;;;;;;17.65;100.00;100903.72;4997606;28;20511;-75
2023/09/23 00:58:07;;;;;;;31.50;29.70;;;;;;;17.74;100.00;100907.59;5003713;28;20104;-76
2023/09/23 01:00:36;;;;;;;32.40;30.45;;;;;;;17.55;100.00;100899.00;5007472;28;20145;-72
2023/09/23 01:03:03;;;;;;;30.33;28.63;;;;;;;17.28;100.00;100904.28;5000496;28;20526;-72
2023/09/23 01:05:30;;;;;;;35.78;33.78;;;;;;;17.29;100.00;100907.75;5000155;28;20081;-72
2023/09/23 01:07:58;;;;;;;35.80;33.80;;;;;;;17.44;100.00;100897.25;4999865;28;20112;-72
2023/09/23 01:10:28;;;;;;;35.17;33.08;;;;;;;17.04;100.00;100900.94;5001874;28;20057;-76
2023/09/23 01:12:55;;;;;;;31.30;29.60;;;;;;;17.22;100.00;100899.88;5002641;28;20481;-75
2023/09/23 01:15:25;;;;;;;31.05;29.30;;;;;;;16.60;100.00;100902.56;4999570;28;20037;-73
2023/09/23 01:17:53;;;;;;;30.30;28.50;;;;;;;17.16;100.00;100904.34;5003321;28;20137;-75
2023/09/23 01:20:20;;;;;;;30.92;29.02;;;;;;;17.27;100.00;100905.31;4999867;28;20116;-75
2023/09/23 01:22:49;;;;;;;33.05;31.15;;;;;;;17.30;100.00;100899.44;5002812;28;20137;-75
2023/09/23 01:25:16;;;;;;;34.33;32.33;;;;;;;17.12;100.00;100892.47;4999565;28;20050;-71
2023/09/23 01:27:43;;;;;;;27.98;26.17;;;;;;;17.19;100.00;100903.06;5000309;28;20554;-72
2023/09/23 01:30:12;;;;;;;27.40;25.58;;;;;;;16.67;100.00;100911.28;5001511;28;20058;-72
2023/09/23 01:32:46;;;;;;;29.67;27.80;;;;;;;16.66;100.00;100901.59;4999099;28;20056;-72
2023/09/23 01:35:15;;;;;;;31.88;30.08;;;;;;;16.98;100.00;100920.69;4995033;28;20182;-72
2023/09/23 01:37:42;;;;;;;33.58;31.65;;;;;;;17.22;100.00;100920.53;5001859;28;20565;-76
2023/09/23 01:40:14;;;;;;;33.20;31.10;;;;;;;17.28;100.00;100920.38;4999152;28;20500;-72
2023/09/23 01:42:41;;;;;;;;;;;;;;;17.40;100.00;100920.28;4993576;28;20499;-72
2023/09/23 01:45:12;;;;;;;26.10;24.30;;;;;;;17.16;100.00;100923.13;4996661;28;19972;-72
2023/09/23 01:47:39;;;;;;;27.13;25.42;;;;;;;17.32;100.00;100926.06;4999961;28;20100;-71
2023/09/23 01:50:08;;;;;;;30.90;28.90;;;;;;;17.09;100.00;100917.09;5005318;28;20051;-75
2023/09/23 01:52:36;;;;;;;30.45;28.55;;;;;;;17.20;100.00;100923.47;4998903;28;20050;-72
2023/09/23 01:55:04;;;;;;;28.88;27.08;;;;;;;17.09;100.00;100913.63;5009714;28;20135;-75
2023/09/23 01:57:33;;;;;;;32.95;30.85;;;;;;;16.59;100.00;100909.00;4997396;28;20045;-75
2023/09/23 02:00:00;;;;;;;31.65;29.55;;;;;;;16.30;100.00;100911.69;5003747;28;20097;-71
2023/09/23 02:02:27;;;;;;;30.05;28.15;;;;;;;16.88;100.00;100920.50;5010580;28;20124;-72
2023/09/23 02:04:54;;;;;;;31.20;29.30;;;;;;;17.06;100.00;100920.28;5001578;28;20053;-75
2023/09/23 02:07:21;;;;;;;34.90;32.65;;;;;;;17.27;100.00;100915.22;5005361;28;20751;-75
2023/09/23 02:09:48;;;;;;;33.28;31.17;;;;;;;16.89;100.00;100917.59;5003397;28;20077;-72
2023/09/23 02:12:15;;;;;;;32.08;30.08;;;;;;;16.95;100.00;100923.88;4998783;28;20518;-75
2023/09/23 02:14:44;;;;;;;33.20;31.27;;;;;;;17.01;100.00;100932.81;4997697;28;20045;-75
2023/09/23 02:17:11;;;;;;;36.30;34.10;;;;;;;17.03;100.00;100928.81;5004149;28;20064;-76
2023/09/23 02:19:37;;;;;;;32.28;30.17;;;;;;;17.09;100.00;100921.66;5004696;28;20428;-75
2023/09/23 02:22:05;;;;;;;32.53;30.42;;;;;;;16.98;100.00;100923.38;5000837;28;20200;-72
2023/09/23 02:24:33;;;;;;;37.20;35.10;;;;;;;17.14;100.00;100927.13;5002048;28;20041;-72
2023/09/23 02:27:00;;;;;;;35.10;32.90;;;;;;;16.71;100.00;100926.66;5000622;28;20065;-72
2023/09/23 02:29:27;;;;;;;32.95;30.67;;;;;;;16.72;100.00;100930.94;5003724;28;20054;-75
2023/09/23 02:31:55;;;;;;;37.00;34.65;;;;;;;16.76;100.00;100933.19;5007415;28;20058;-72
2023/09/23 02:34:22;;;;;;;36.47;34.17;;;;;;;17.02;100.00;100937.94;4998399;28;20053;-75
2023/09/23 02:36:52;;;;;;;33.58;31.48;;;;;;;16.99;100.00;100940.28;5007028;28;20504;-72
2023/09/23 02:39:20;;;;;;;34.53;32.42;;;;;;;16.71;100.00;100940.06;5005543;28;20045;-72
2023/09/23 02:41:47;;;;;;;32.33;30.27;;;;;;;16.97;100.00;100945.06;5003947;28;20050;-72
2023/09/23 02:44:18;;;;;;;35.55;33.35;;;;;;;17.01;100.00;100940.88;5009063;28;20046;-72
2023/09/23 02:46:48;;;;;;;31.65;29.65;;;;;;;16.88;100.00;100940.13;5006525;28;20073;-75
2023/09/23 02:49:17;;;;;;;33.90;31.90;;;;;;;16.88;100.00;100933.94;5003973;28;20482;-71
2023/09/23 02:51:44;;;;;;;30.77;28.95;;;;;;;16.90;100.00;100940.69;4999455;28;20053;-75
2023/09/23 02:54:13;;;;;;;44.45;41.10;;;;;;;16.43;100.00;100932.84;5000387;28;20124;-75
2023/09/23 02:56:41;;;;;;;29.50;27.00;;;;;;;16.28;100.00;100943.28;5001683;28;20104;-71
2023/09/23 02:59:13;;;;;;;28.65;26.13;;;;;;;16.79;100.00;100949.59;4998341;28;20050;-72
2023/09/23 03:01:45;;;;;;;36.40;33.70;;;;;;;16.83;100.00;100945.41;5003408;28;20056;-72
2023/09/23 03:04:16;;;;;;;38.53;35.63;;;;;;;16.43;100.00;100945.41;5003888;28;20066;-75
2023/09/23 03:06:49;;;;;;;41.78;38.88;;;;;;;16.55;100.00;100948.06;5004477;28;20057;-73
2023/09/23 03:09:19;;;;;;;51.40;48.00;;;;;;;16.44;100.00;100947.06;5004939;28;20053;-75
2023/09/23 03:11:55;;;;;;;43.08;40.58;;;;;;;16.60;100.00;100951.66;5005208;28;20387;-75
2023/09/23 03:14:28;;;;;;;41.83;39.40;;;;;;;16.57;100.00;100952.13;5008604;28;20046;-72
2023/09/23 03:16:57;;;;;;;42.53;40.13;;;;;;;16.56;100.00;100949.69;5007079;28;20057;-72
2023/09/23 03:19:25;;;;;;;47.05;44.35;;;;;;;16.51;100.00;100952.28;5007546;28;20050;-72
2023/09/23 03:21:56;;;;;;;46.53;43.83;;;;;;;16.57;100.00;100948.63;5004365;28;20050;-75
2023/09/23 03:24:25;;;;;;;37.85;35.45;;;;;;;16.70;100.00;100954.53;5006747;28;20085;-75
2023/09/23 03:26:55;;;;;;;37.33;34.92;;;;;;;16.61;100.00;100950.63;5004743;28;20459;-75
2023/09/23 03:29:22;;;;;;;36.90;34.22;;;;;;;16.20;100.00;100957.84;5003302;28;20528;-72
2023/09/23 03:31:49;;;;;;;39.03;36.42;;;;;;;16.17;100.00;100963.69;5003504;28;20041;-76
2023/09/23 03:34:17;;;;;;;41.55;38.85;;;;;;;16.32;100.00;100959.69;5003709;28;20065;-72
2023/09/23 03:36:45;;;;;;;31.83;29.73;;;;;;;16.36;100.00;100958.97;5003874;28;20141;-75
2023/09/23 03:39:17;;;;;;;37.30;34.90;;;;;;;16.33;100.00;100959.44;5003546;28;20176;-75
2023/09/23 03:41:46;;;;;;;40.30;37.75;;;;;;;16.38;100.00;100959.56;5002145;28;20100;-72
2023/09/23 03:44:14;;;;;;;34.60;32.30;;;;;;;16.38;100.00;100964.09;5000622;28;20146;-76
2023/09/23 03:46:42;;;;;;;32.30;29.80;;;;;;;16.33;100.00;100959.44;4997382;28;20115;-72
2023/09/23 03:49:08;;;;;;;34.90;32.20;;;;;;;16.38;100.00;100964.91;4996901;28;20053;-76
2023/09/23 03:51:36;;;;;;;26.40;24.70;;;;;;;16.51;100.00;100966.50;5003425;28;20050;-75
2023/09/23 03:54:04;;;;;;;29.40;27.20;;;;;;;16.45;100.00;100960.22;4998359;28;20483;-75
2023/09/23 03:56:33;;;;;;;26.80;25.30;;;;;;;16.49;100.00;100965.94;5001752;28;20112;-75
2023/09/23 03:59:00;;;;;;;27.10;25.40;;;;;;;16.34;100.00;100970.97;4995402;28;20090;-72
2023/09/23 04:01:27;;;;;;;26.65;24.95;;;;;;;16.28;100.00;100978.13;5001271;28;20058;-75
2023/09/23 04:03:54;;;;;;;23.02;21.52;;;;;;;16.00;100.00;100978.84;4997278;28;20054;-72
2023/09/23 04:06:23;;;;;;;25.15;23.35;;;;;;;16.01;100.00;100973.28;4998745;28;20053;-72
2023/09/23 04:08:50;;;;;;;21.80;20.30;;;;;;;16.18;100.00;100986.75;5003854;28;20104;-75
2023/09/23 04:11:18;;;;;;;21.33;19.83;;;;;;;16.29;100.00;100985.09;5004059;28;20057;-72
2023/09/23 04:13:46;;;;;;;21.77;20.27;;;;;;;16.33;100.00;100986.25;5000844;28;20060;-76
2023/09/23 04:16:14;;;;;;;21.35;19.85;;;;;;;16.25;100.00;100986.63;5001904;28;20050;-75
2023/09/23 04:18:41;;;;;;;20.45;19.05;;;;;;;16.34;100.00;100993.25;4999052;28;20086;-72
2023/09/23 04:21:09;;;;;;;20.23;18.73;;;;;;;16.31;100.00;100991.03;5000556;28;20064;-71
2023/09/23 04:23:36;;;;;;;21.13;19.73;;;;;;;16.41;100.00;100991.25;5003968;28;20480;-72
2023/09/23 04:26:03;;;;;;;21.63;20.13;;;;;;;16.26;100.00;100994.44;4999562;28;20053;-71
2023/09/23 04:28:30;;;;;;;21.48;19.98;;;;;;;16.35;100.00;101005.59;4996283;28;20050;-72
2023/09/23 04:30:59;;;;;;;22.00;20.40;;;;;;;16.17;100.00;101003.88;5003522;28;20054;-71
2023/09/23 04:33:27;;;;;;;21.88;20.27;;;;;;;16.38;100.00;101020.41;5006602;28;20046;-71
2023/09/23 04:35:56;;;;;;;22.50;20.90;;;;;;;16.71;100.00;101006.31;5006662;28;20046;-72
2023/09/23 04:38:23;;;;;;;22.60;21.00;;;;;;;16.71;100.00;101007.09;5005672;28;20038;-71
2023/09/23 04:40:50;;;;;;;21.75;20.25;;;;;;;16.71;100.00;101006.31;5008793;28;20056;-72
2023/09/23 04:43:17;;;;;;;21.17;19.58;;;;;;;16.77;100.00;101004.56;4999078;28;20049;-71
2023/09/23 04:45:45;;;;;;;22.67;21.08;;;;;;;16.87;100.00;101010.91;5001634;28;20045;-75
2023/09/23 04:48:14;;;;;;;22.13;20.63;;;;;;;17.08;100.00;101020.16;5003324;28;20056;-75
2023/09/23 04:50:41;;;;;;;22.70;21.00;;;;;;;17.25;100.00;101014.81;4987227;28;20372;-74
2023/09/23 04:53:08;;;;;;;22.75;21.15;;;;;;;17.31;100.00;101018.41;5010093;28;20077;-75
2023/09/23 04:55:35;;;;;;;22.85;21.23;;;;;;;17.30;100.00;101014.88;5007200;28;20054;-75
2023/09/23 04:58:02;;;;;;;23.55;21.85;;;;;;;17.45;100.00;101008.94;5002241;28;20080;-75
2023/09/23 05:00:36;;;;;;;23.10;21.50;;;;;;;17.27;100.00;101017.25;5004527;28;20049;-75
2023/09/23 05:03:03;;;;;;;23.40;21.75;;;;;;;17.31;100.00;101024.56;5005612;28;20085;-75
2023/09/23 05:05:32;;;;;;;34.13;22.02;;;;;;;17.83;100.00;101024.34;5003606;28;20053;-75
2023/09/23 05:07:59;;;;;;;23.50;21.90;;;;;;;18.08;100.00;101023.06;5002846;28;20439;-75
2023/09/23 05:10:28;;;;;;;23.83;22.23;;;;;;;18.20;100.00;101029.13;5006041;28;20056;-75
2023/09/23 05:12:56;;;;;;;21.77;20.27;;;;;;;18.35;100.00;101019.66;5004823;28;20085;-75
2023/09/23 05:15:24;;;;;;;26.55;23.75;;;;;;;18.53;100.00;101012.06;5004575;28;20136;-75
2023/09/23 05:17:52;;;;;;;23.77;22.10;;;;;;;18.67;100.00;101009.81;5005134;28;20058;-75
2023/09/23 05:20:20;;;;;;;23.38;21.85;;;;;;;18.80;100.00;101011.31;5004784;28;20050;-75
2023/09/23 05:22:48;;;;;;;23.20;21.70;;;;;;;18.98;100.00;101012.84;5003951;28;20046;-75
2023/09/23 05:25:15;;;;;;;22.85;21.20;;;;;;;19.11;100.00;101017.81;5003321;28;20537;-75
2023/09/23 05:27:43;;;;;;;22.95;21.25;;;;;;;18.80;100.00;101024.78;5002682;28;20050;-74
2023/09/23 05:30:11;;;;;;;27.25;25.13;;;;;;;18.98;100.00;101024.41;5000361;28;20050;-75
2023/09/23 05:32:38;;;;;;;25.20;23.33;;;;;;;19.35;100.00;101026.34;4998307;28;20046;-75
2023/09/23 05:35:09;;;;;;;25.60;23.55;;;;;;;19.70;100.00;101022.34;5007123;28;20100;-75
2023/09/23 05:37:36;;;;;;;23.52;21.88;;;;;;;19.90;100.00;101029.75;5012570;28;20049;-76
2023/09/23 05:40:19;;;;;;;23.40;21.70;;;;;;;19.92;100.00;101029.50;5002062;28;20424;-75
2023/09/23 05:42:46;;;;;;;24.70;22.80;;;;;;;20.07;100.00;101030.38;5001185;28;20049;-75
2023/09/23 05:45:14;;;;;;;24.50;22.65;;;;;;;20.23;100.00;101038.56;4998923;28;20054;-75
2023/09/23 05:47:41;;;;;;;24.83;22.85;;;;;;;20.36;100.00;101047.00;5000801;28;20663;-75
2023/09/23 05:50:10;;;;;;;22.40;20.80;;;;;;;20.57;100.00;101037.13;4999228;28;20523;-75
2023/09/23 05:52:37;;;;;;;22.55;20.92;;;;;;;20.57;100.00;101047.06;5003856;28;20149;-75
2023/09/23 05:55:06;;;;;;;23.20;21.35;;;;;;;20.78;100.00;101051.47;5004014;28;20058;-75
2023/09/23 05:57:34;;;;;;;23.38;21.67;;;;;;;20.81;100.00;101053.63;5007965;28;20484;-75
2023/09/23 06:00:04;;;;;;;24.63;22.83;;;;;;;21.14;100.00;101054.25;5004733;28;20528;-74
2023/09/23 06:02:31;;;;;;;24.63;22.80;;;;;;;21.23;100.00;101049.94;5008535;28;20049;-74
2023/09/23 06:05:00;;;;;;;22.98;21.17;;;;;;;21.46;100.00;101047.81;5006693;28;20061;-75
2023/09/23 06:07:27;;;;;;;24.58;22.77;;;;;;;21.66;100.00;101055.09;5010478;28;20050;-75
2023/09/23 06:09:54;;;;;;;24.38;22.77;;;;;;;21.66;100.00;101057.78;5011743;28;20060;-75
2023/09/23 06:12:22;;;;;;;23.50;21.90;;;;;;;22.00;100.00;101059.91;5010003;28;20069;-75
2023/09/23 06:14:49;;;;;;;26.75;24.58;;;;;;;22.23;100.00;101058.53;5004611;28;20508;-75
2023/09/23 06:19:45;;;;;;;25.55;23.75;;;;;;;22.47;100.00;101061.41;5019452;28;20045;-73
2023/09/23 06:22:12;;;;;;;25.95;23.83;;;;;;;22.82;100.00;101052.31;5016396;28;20088;-73
2023/09/23 06:24:41;;;;;;;23.58;21.70;;;;;;;22.87;100.00;101054.97;5021057;28;20046;-73
2023/09/23 06:27:08;;;;;;;27.25;22.88;;;;;;;23.03;100.00;101050.31;5025622;28;20073;-74
2023/09/23 06:29:37;;;;;;;23.25;21.55;;;;;;;23.15;100.00;101058.06;5023459;28;20056;-73
2023/09/23 06:32:05;;;;;;;23.95;22.35;;;;;;;23.47;100.00;101052.16;5023675;28;20053;-73
2023/09/23 06:34:32;;;;;;;24.58;22.50;;;;;;;23.67;100.00;101049.25;5025415;28;20068;-73
2023/09/23 06:36:59;;;;;;;22.63;21.02;;;;;;;23.89;100.00;101050.72;5027865;28;20612;-72
2023/09/23 06:39:26;;;;;;;22.75;21.25;;;;;;;24.03;100.00;101054.38;5029214;28;20430;-71
2023/09/23 06:41:53;;;;;;;22.85;21.35;;;;;;;24.28;100.00;101061.41;5026387;28;20049;-73
2023/09/23 06:44:21;;;;;;;22.83;21.27;;;;;;;24.27;100.00;101062.50;5024611;28;20053;-72
2023/09/23 06:46:51;;;;;;;22.17;20.48;;;;;;;24.51;100.00;101067.94;5029563;28;20506;-73
2023/09/23 06:49:18;;;;;;;20.55;19.15;;;;;;;24.74;100.00;101073.63;5023914;28;20053;-71
2023/09/23 06:51:45;;;;;;;20.73;19.13;;;;;;;24.89;100.00;101071.50;5029232;28;20048;-72
2023/09/23 06:54:12;;;;;;;20.15;18.75;;;;;;;24.91;100.00;101066.56;5030922;28;20053;-72
2023/09/23 06:56:39;;;;;;;22.80;21.10;;;;;;;25.17;100.00;101065.41;5029314;28;20058;-72
2023/09/23 06:59:05;;;;;;;22.95;21.35;;;;;;;25.37;100.00;101070.53;5030267;28;20042;-73
2023/09/23 07:01:33;;;;;;;21.38;19.73;;;;;;;25.47;100.00;101062.19;5028429;28;20418;-72
2023/09/23 07:04:02;;;;;;;19.08;17.58;;;;;;;25.82;100.00;101068.16;5028256;28;20506;-75
2023/09/23 07:06:28;;;;;;;23.05;21.08;;;;;;;25.79;100.00;101060.56;5022616;28;20045;-75
2023/09/23 07:08:55;;;;;;;19.42;17.92;;;;;;;26.28;100.00;101075.44;5026949;28;20042;-76
2023/09/23 07:11:23;;;;;;;25.05;23.17;;;;;;;26.09;100.00;101072.03;5029309;28;20136;-75
2023/09/23 07:13:50;;;;;;;23.40;21.70;;;;;;;26.23;100.00;101067.38;5030435;28;20449;-74
2023/09/23 07:16:17;;;;;;;21.98;20.48;;;;;;;26.42;100.00;101070.00;5029437;28;20053;-72
2023/09/23 07:18:45;;;;;;;21.05;19.45;;;;;;;26.84;100.00;101073.47;5028119;28;20046;-73
2023/09/23 07:21:13;;;;;;;22.80;21.20;;;;;;;27.18;100.00;101078.47;5028549;28;20049;-73
2023/09/23 07:23:40;;;;;;;23.77;22.08;;;;;;;27.47;100.00;101069.81;5029068;28;20052;-74
2023/09/23 07:26:07;;;;;;;24.63;22.75;;;;;;;27.46;100.00;101072.88;5026335;28;20054;-74
2023/09/23 07:28:34;;;;;;;24.80;22.90;;;;;;;27.79;100.00;101074.22;5028387;28;20050;-75
2023/09/23 07:31:01;;;;;;;20.20;18.50;;;;;;;27.78;100.00;101082.75;5028632;28;20052;-74
2023/09/23 07:33:28;;;;;;;22.38;20.13;;;;;;;27.75;100.00;101080.59;5026444;28;20049;-74
2023/09/23 07:35:55;;;;;;;22.80;21.10;;;;;;;28.01;100.00;101080.75;5027585;28;20620;-75
2023/09/23 07:38:23;;;;;;;23.70;21.90;;;;;;;28.36;100.00;101080.88;5024642;28;20561;-74
2023/09/23 07:40:50;;;;;;;24.90;22.90;;;;;;;28.55;100.00;101070.50;5026247;28;20045;-75
2023/09/23 07:43:17;;;;;;;23.92;21.70;;;;;;;28.45;100.00;101068.88;5022519;28;20049;-74
2023/09/23 07:45:44;;;;;;;24.00;22.10;;;;;;;28.42;100.00;101074.19;5022846;28;20049;-74
2023/09/23 07:48:11;;;;;;;24.95;23.15;;;;;;;28.59;100.00;101074.19;5027269;28;20053;-77
2023/09/23 07:50:38;;;;;;;24.33;22.52;;;;;;;29.32;100.00;101076.31;5028106;28;20053;-76
2023/09/23 07:53:05;;;;;;;23.20;21.38;;;;;;;29.17;100.00;101070.25;5026005;28;20053;-76
2023/09/23 07:55:33;;;;;;;25.48;23.23;;;;;;;28.66;100.00;101069.06;5025747;28;20068;-77
2023/09/23 07:58:00;;;;;;;24.45;22.45;;;;;;;28.79;100.00;101072.78;5019919;28;20061;-77
2023/09/23 08:00:26;;;;;;;25.25;23.35;;;;;;;29.03;100.00;101061.41;5026198;28;20430;-77
2023/09/23 08:02:59;;;;;;;27.85;24.85;;;;;;;28.36;100.00;101068.03;5028390;28;20520;-76
2023/09/23 08:05:32;;;;;;;24.85;22.95;;;;;;;29.78;100.00;101058.41;5026929;28;20530;-76
2023/09/23 08:07:59;;;;;;;23.50;21.60;;;;;;;30.56;100.00;101068.97;5027380;28;20148;-76
2023/09/23 08:10:32;;;;;;;23.00;21.20;;;;;;;29.29;100.00;101068.75;5029801;28;20552;-76
2023/09/23 08:13:02;;;;;;;25.80;23.85;;;;;;;29.48;100.00;101058.28;5030071;28;20053;-76
2023/09/23 08:15:30;;;;;;;24.30;22.40;;;;;;;29.17;100.00;101056.56;5028804;28;20058;-76
2023/09/23 08:17:56;;;;;;;24.05;22.25;;;;;;;29.28;100.00;101059.75;5023228;28;20053;-76
2023/09/23 08:20:24;;;;;;;24.88;22.92;;;;;;;28.56;100.00;101063.09;5019938;28;20046;-76
2023/09/23 08:22:53;;;;;;;25.23;23.23;;;;;;;28.25;100.00;101061.22;5028751;28;20525;-77
2023/09/23 08:25:20;;;;;;;25.40;23.25;;;;;;;28.58;100.00;101053.47;5028463;28;20053;-76
2023/09/23 08:27:47;;;;;;;24.05;22.00;;;;;;;29.46;100.00;101038.66;5030329;28;20076;-73
2023/09/23 08:30:17;;;;;;;24.17;22.33;;;;;;;30.09;100.00;101038.94;5029085;28;20050;-76
2023/09/23 08:32:47;;;;;;;23.80;21.95;;;;;;;30.21;100.00;101043.72;5029633;28;20088;-76
2023/09/23 08:35:14;;;;;;;24.27;22.30;;;;;;;28.98;100.00;101051.38;5024759;28;20049;-76
2023/09/23 08:37:41;;;;;;;25.65;23.60;;;;;;;30.47;100.00;101046.28;5029573;28;20494;-77
2023/09/23 08:40:10;;;;;;;24.67;22.58;;;;;;;29.93;100.00;101046.91;5029427;28;20052;-76
2023/09/23 08:42:38;;;;;;;24.70;22.90;;;;;;;30.13;100.00;101043.41;5027494;28;20136;-75
2023/09/23 08:45:06;;;;;;;24.33;22.45;;;;;;;31.66;100.00;101046.72;5026559;28;20523;-75
2023/09/23 08:47:35;;;;;;;25.67;23.75;;;;;;;32.14;100.00;101040.50;5024820;28;20064;-75
2023/09/23 08:50:03;;;;;;;39.33;23.40;;;;;;;30.61;100.00;101044.09;5024050;28;20485;-75
2023/09/23 08:52:33;;;;;;;23.55;21.75;;;;;;;30.43;100.00;101046.16;5028139;28;20061;-75
2023/09/23 08:55:01;;;;;;;27.58;25.30;;;;;;;29.82;100.00;101037.44;5026786;28;20060;-75
2023/09/23 08:57:29;;;;;;;27.30;25.30;;;;;;;31.61;100.00;101030.47;5023922;28;20046;-75
2023/09/23 08:59:56;;;;;;;30.90;27.95;;;;;;;29.97;100.00;101039.63;5027982;28;20057;-75
2023/09/23 09:02:25;;;;;;;27.15;24.95;;;;;;;28.92;100.00;101039.00;5026820;28;20510;-75
2023/09/23 09:04:54;;;;;;;26.92;24.83;;;;;;;29.74;100.00;101035.53;5028611;28;20565;-75
2023/09/23 09:07:24;;;;;;;28.55;26.05;;;;;;;29.08;100.00;101041.28;5029285;28;20053;-75
2023/09/23 09:09:54;;;;;;;26.83;24.83;;;;;;;29.01;100.00;101039.00;5029240;28;20431;-76
2023/09/23 09:12:21;;;;;;;24.80;23.00;;;;;;;30.01;100.00;101029.59;5028467;28;20417;-76
2023/09/23 09:14:51;;;;;;;24.70;22.90;;;;;;;31.09;100.00;101039.22;5026926;28;20049;-75
2023/09/23 09:17:19;;;;;;;35.30;25.33;;;;;;;29.84;100.00;101041.47;5026647;28;20046;-76
2023/09/23 09:19:46;;;;;;;25.60;23.90;;;;;;;31.32;100.00;101039.63;5025643;28;20249;-75
2023/09/23 09:22:16;;;;;;;38.17;20.75;;;;;;;29.25;100.00;101040.47;5026189;28;20057;-75
2023/09/23 09:24:46;;;;;;;29.45;20.20;;;;;;;30.34;100.00;101037.19;5023167;28;20426;-75
2023/09/23 09:27:14;;;;;;;23.80;22.00;;;;;;;30.13;100.00;101035.19;5024159;28;20085;-75
2023/09/23 09:29:41;;;;;;;26.20;24.40;;;;;;;30.27;100.00;101035.00;5026601;28;20041;-76
2023/09/23 09:32:10;;;;;;;27.85;23.80;;;;;;;28.53;100.00;101035.31;5024818;28;20053;-75
2023/09/23 09:34:44;;;;;;;21.67;19.98;;;;;;;30.82;100.00;101032.38;5028344;28;20069;-75
2023/09/23 09:37:14;;;;;;;25.02;22.88;;;;;;;30.31;100.00;101032.38;5024888;28;20052;-76
2023/09/23 09:39:51;;;;;;;24.77;23.08;;;;;;;30.49;100.00;101027.59;5023288;28;20473;-76
2023/09/23 09:42:23;;;;;;;26.83;24.95;;;;;;;29.86;100.00;101025.50;5025740;28;20051;-76
2023/09/23 09:44:54;;;;;;;25.98;23.92;;;;;;;31.81;100.00;101024.09;5025452;28;20045;-77
2023/09/23 09:47:21;;;;;;;23.52;21.70;;;;;;;30.58;100.00;101023.66;5022820;28;20072;-76
2023/09/23 09:49:51;;;;;;;27.33;25.00;;;;;;;30.32;100.00;101023.06;5026472;28;20049;-76
2023/09/23 09:52:22;;;;;;;29.15;22.77;;;;;;;30.33;100.00;101022.69;5028162;28;20049;-76
2023/09/23 09:54:52;;;;;;;28.35;25.38;;;;;;;29.59;100.00;101007.56;5027670;28;20434;-76
2023/09/23 09:57:20;;;;;;;25.45;23.33;;;;;;;30.49;100.00;101020.16;5025588;28;20050;-75
2023/09/23 09:59:59;;;;;;;22.65;20.95;;;;;;;30.97;100.00;101002.38;5028022;28;20053;-76
2023/09/23 10:02:33;;;;;;;23.05;21.25;;;;;;;30.47;100.00;101014.25;5022769;28;20045;-75
2023/09/23 10:05:09;;;;;;;25.85;23.73;;;;;;;30.84;100.00;101006.22;5026373;28;20084;-75
2023/09/23 10:07:56;;;;;;;35.10;24.02;;;;;;;28.64;100.00;101010.41;5026465;28;20084;-75
2023/09/23 10:10:33;;;;;;;24.40;22.55;;;;;;;30.35;100.00;101008.69;5026957;28;20044;-76
2023/09/23 10:13:08;;;;;;;23.52;21.73;;;;;;;30.77;100.00;101005.91;5030174;28;20431;-75
2023/09/23 10:15:38;;;;;;;25.98;23.88;;;;;;;33.09;100.00;101006.38;5030688;28;20526;-76
2023/09/23 10:18:31;;;;;;;25.35;23.35;;;;;;;30.91;100.00;101005.69;5031570;28;20057;-75
2023/09/23 10:20:58;;;;;;;26.67;24.38;;;;;;;33.25;100.00;100994.22;5039783;28;20490;-77
2023/09/23 10:23:26;;;;;;;25.95;23.67;;;;;;;31.90;100.00;100996.56;5038490;28;20136;-76
2023/09/23 10:25:53;;;;;;;26.25;24.25;;;;;;;30.90;100.00;101001.34;5038165;28;20410;-76
2023/09/23 10:28:22;;;;;;;28.63;26.27;;;;;;;29.82;100.00;100996.38;5042592;28;20048;-76
2023/09/23 10:30:59;;;;;;;28.60;24.33;;;;;;;33.21;91.95;100978.78;5044450;28;20079;-76
2023/09/23 10:33:27;;;;;;;26.60;24.10;;;;;;;31.36;100.00;100988.47;5035845;28;20053;-76
2023/09/23 10:35:56;;;;;;;27.63;25.27;;;;;;;30.30;100.00;100989.69;5037782;28;20049;-76
2023/09/23 10:38:23;;;;;;;27.00;25.02;;;;;;;28.93;100.00;100985.97;5038364;28;20049;-76
2023/09/23 10:40:55;;;;;;;25.95;24.05;;;;;;;30.35;100.00;100976.59;5030171;28;20068;-76
2023/09/23 10:43:22;;;;;;;;;;;;;;;30.31;100.00;100972.13;5040558;28;20065;-76
2023/09/23 10:45:49;;;;;;;23.98;21.85;;;;;;;30.97;100.00;100961.25;5033058;28;19975;-76
2023/09/23 10:48:16;;;;;;;26.70;24.67;;;;;;;28.91;100.00;100971.00;5041789;28;20045;-77
2023/09/23 10:50:43;;;;;;;24.88;23.02;;;;;;;30.52;100.00;100964.69;5041598;28;20045;-76
2023/09/23 10:53:10;;;;;;;24.80;22.90;;;;;;;31.97;100.00;100963.81;5035139;28;20050;-76
2023/09/23 10:55:39;;;;;;;28.00;25.58;;;;;;;34.60;79.17;100948.19;5041406;28;20565;-76
2023/09/23 10:58:08;;;;;;;27.10;25.10;;;;;;;34.69;79.80;100947.97;5039875;28;20562;-76
2023/09/23 11:00:36;;;;;;;28.17;25.75;;;;;;;35.38;66.83;100948.03;5043726;28;20129;-76
2023/09/23 11:03:09;;;;;;;26.88;24.88;;;;;;;33.79;74.48;100939.72;5040030;28;20128;-76
2023/09/23 11:05:38;;;;;;;25.23;23.33;;;;;;;33.72;89.40;100938.38;5032145;28;20049;-76
2023/09/23 11:08:06;;;;;;;27.38;25.38;;;;;;;32.40;91.36;100932.91;5023464;28;20095;-76
2023/09/23 11:10:34;;;;;;;25.92;23.92;;;;;;;32.94;100.00;100928.13;5042364;28;20045;-76